createdAt,value
2019-01-04T00:02:06.929Z,9.93
2019-01-04T00:04:36.861Z,8.97
2019-01-04T00:07:06.531Z,9.77
2019-01-04T00:09:36.213Z,14.83
2019-01-04T00:12:05.889Z,13.13
2019-01-04T00:14:35.877Z,14.83
2019-01-04T00:17:05.675Z,13.67
2019-01-04T00:19:35.394Z,13.47
2019-01-04T00:22:06.993Z,10.30
2019-01-04T00:24:36.681Z,12.07
2019-01-04T00:27:06.353Z,10.03
2019-01-04T00:29:36.118Z,12.67
2019-01-04T00:32:05.795Z,12.17
2019-01-04T00:34:35.539Z,10.63
2019-01-04T00:37:05.695Z,11.23
2019-01-04T00:39:35.442Z,13.97
2019-01-04T00:42:05.292Z,16.87
2019-01-04T00:44:34.977Z,15.58
2019-01-04T00:47:05.289Z,14.03
2019-01-04T00:49:35.717Z,15.00
2019-01-04T00:52:05.470Z,13.10
2019-01-04T00:54:35.146Z,15.60
2019-01-04T00:57:47.145Z,12.37
2019-01-04T01:00:49.869Z,12.73
2019-01-04T01:03:50.429Z,14.65
2019-01-04T01:06:47.145Z,12.18
2019-01-04T01:10:03.105Z,21.07
2019-01-04T01:13:08.295Z,13.17
2019-01-04T01:16:13.588Z,10.73
2019-01-04T01:19:30.638Z,13.43
2019-01-04T01:22:38.853Z,14.27
2019-01-04T01:25:52.998Z,17.60
2019-01-04T01:28:51.668Z,13.70
2019-01-04T01:31:57.348Z,13.78
2019-01-04T01:35:11.238Z,12.53
2019-01-04T01:38:23.684Z,13.93
2019-01-04T01:41:36.057Z,14.70
2019-01-04T01:44:42.553Z,15.10
2019-01-04T01:47:39.520Z,15.00
2019-01-04T01:50:55.431Z,13.50
2019-01-04T01:53:39.419Z,11.00
2019-01-04T01:56:09.105Z,12.90
2019-01-04T01:58:38.782Z,15.70
2019-01-04T02:01:08.456Z,11.00
2019-01-04T02:03:38.375Z,13.70
2019-01-04T02:06:08.054Z,11.20
2019-01-04T02:08:38.776Z,17.77
2019-01-04T02:11:08.470Z,14.77
2019-01-04T02:13:38.143Z,13.63
2019-01-04T02:16:07.908Z,11.17
2019-01-04T02:18:37.586Z,14.73
2019-01-04T02:21:07.265Z,12.33
2019-01-04T02:23:36.950Z,15.17
2019-01-04T02:26:06.621Z,12.00
2019-01-04T02:28:36.288Z,17.60
2019-01-04T02:31:05.969Z,13.17
2019-01-04T02:33:35.893Z,14.40
2019-01-04T02:36:05.647Z,14.20
2019-01-04T02:38:35.321Z,14.93
2019-01-04T02:41:05.032Z,15.67
2019-01-04T02:43:34.976Z,14.73
2019-01-04T02:46:05.521Z,15.40
2019-01-04T02:48:35.428Z,12.00
2019-01-04T02:51:05.636Z,12.60
2019-01-04T02:53:35.289Z,14.07
2019-01-04T02:56:05.365Z,14.07
2019-01-04T02:58:35.314Z,15.20
2019-01-04T03:01:05.674Z,13.62
2019-01-04T03:03:35.361Z,16.15
2019-01-04T03:06:05.242Z,13.80
2019-01-04T03:08:34.929Z,13.13
2019-01-04T03:11:04.602Z,11.57
2019-01-04T03:13:34.300Z,15.17
2019-01-04T03:16:04.062Z,13.87
2019-01-04T03:18:33.736Z,10.90
2019-01-04T03:21:03.645Z,11.00
2019-01-04T03:23:33.333Z,12.80
2019-01-04T03:26:03.009Z,13.10
2019-01-04T03:28:32.697Z,11.93
2019-01-04T03:31:02.440Z,13.83
2019-01-04T03:33:32.124Z,12.17
2019-01-04T03:36:01.803Z,9.53
2019-01-04T03:38:31.473Z,11.83
2019-01-04T03:41:01.148Z,10.67
2019-01-04T03:43:30.820Z,12.87
2019-01-04T03:46:00.503Z,13.27
2019-01-04T03:48:30.173Z,12.33
2019-01-04T03:51:00.796Z,11.73
2019-01-04T03:53:30.473Z,11.00
2019-01-04T03:56:00.137Z,9.97
2019-01-04T03:58:29.810Z,11.50
2019-01-04T04:00:59.460Z,9.50
2019-01-04T04:03:29.143Z,11.53
2019-01-04T04:05:58.814Z,10.80
2019-01-04T04:08:28.494Z,11.93
2019-01-04T04:10:58.183Z,11.47
2019-01-04T04:13:27.854Z,10.90
2019-01-04T04:15:57.602Z,9.50
2019-01-04T04:18:27.275Z,8.87
2019-01-04T04:20:56.939Z,8.87
2019-01-04T04:23:26.599Z,13.53
2019-01-04T04:25:57.230Z,10.37
2019-01-04T04:28:27.020Z,10.93
2019-01-04T04:30:56.688Z,7.77
2019-01-04T04:33:26.361Z,11.53
2019-01-04T04:35:56.038Z,8.13
2019-01-04T04:38:25.693Z,7.87
2019-01-04T04:40:55.369Z,8.23
2019-01-04T04:43:25.042Z,8.13
2019-01-04T04:45:54.705Z,8.20
2019-01-04T04:48:24.378Z,8.07
2019-01-04T04:50:54.053Z,9.93
2019-01-04T04:53:23.721Z,15.10
2019-01-04T04:55:53.404Z,10.90
2019-01-04T04:58:23.099Z,11.97
2019-01-04T05:00:52.767Z,12.00
2019-01-04T05:03:22.442Z,13.43
2019-01-04T05:05:52.114Z,9.20
2019-01-04T05:08:21.857Z,13.00
2019-01-04T05:10:51.540Z,13.20
2019-01-04T05:13:21.204Z,10.00
2019-01-04T05:15:50.872Z,8.37
2019-01-04T05:18:20.558Z,14.47
2019-01-04T05:20:50.229Z,14.50
2019-01-04T05:23:19.890Z,9.83
2019-01-04T05:25:49.571Z,10.90
2019-01-04T05:28:19.254Z,16.20
2019-01-04T05:30:48.929Z,11.37
2019-01-04T05:33:18.605Z,13.68
2019-01-04T05:35:48.289Z,13.03
2019-01-04T05:38:17.970Z,17.67
2019-01-04T05:40:47.652Z,16.47
2019-01-04T05:43:17.341Z,18.40
2019-01-04T05:45:47.012Z,16.77
2019-01-04T05:48:16.693Z,14.15
2019-01-04T05:50:46.368Z,13.27
2019-01-04T05:53:16.290Z,14.00
2019-01-04T05:55:45.967Z,20.83
2019-01-04T05:58:15.892Z,14.67
2019-01-04T06:00:45.566Z,8.40
2019-01-04T06:03:15.245Z,14.13
2019-01-04T06:05:45.178Z,9.60
2019-01-04T06:08:14.849Z,10.73
2019-01-04T06:10:44.529Z,9.80
2019-01-04T06:13:14.259Z,9.87
2019-01-04T06:15:43.957Z,10.77
2019-01-04T06:18:13.620Z,18.70
2019-01-04T06:20:43.543Z,9.87
2019-01-04T06:23:13.224Z,11.53
2019-01-04T06:25:42.895Z,8.53
2019-01-04T06:28:12.559Z,8.85
2019-01-04T06:30:42.219Z,9.57
2019-01-04T06:33:11.888Z,7.13
2019-01-04T06:35:41.788Z,8.20
2019-01-04T06:38:11.471Z,8.90
2019-01-04T06:40:41.143Z,9.47
2019-01-04T06:43:10.796Z,7.08
2019-01-04T06:45:40.548Z,8.67
2019-01-04T06:48:10.208Z,10.27
2019-01-04T06:50:39.872Z,11.50
2019-01-04T06:53:09.532Z,9.60
2019-01-04T06:56:00.259Z,8.77
2019-01-04T06:58:29.934Z,8.60
2019-01-04T07:00:59.615Z,10.10
2019-01-04T07:03:29.291Z,10.57
2019-01-04T07:05:58.969Z,8.83
2019-01-04T07:08:28.734Z,8.45
2019-01-04T07:10:58.419Z,8.53
2019-01-04T07:13:28.329Z,10.60
2019-01-04T07:15:58.000Z,12.17
2019-01-04T07:18:27.679Z,9.83
2019-01-04T07:20:57.591Z,11.93
2019-01-04T07:23:27.963Z,9.57
2019-01-04T07:25:57.652Z,11.80
2019-01-04T07:28:27.328Z,10.97
2019-01-04T07:30:57.001Z,11.70
2019-01-04T07:33:26.666Z,9.93
2019-01-04T07:35:56.407Z,9.78
2019-01-04T07:38:26.091Z,10.27
2019-01-04T07:40:55.765Z,9.80
2019-01-04T07:43:26.407Z,11.10
2019-01-04T07:45:56.079Z,9.87
2019-01-04T07:48:25.746Z,11.35
2019-01-04T07:50:55.437Z,10.20
2019-01-04T07:53:25.105Z,9.27
2019-01-04T07:55:54.783Z,11.50
2019-01-04T07:58:24.700Z,11.80
2019-01-04T08:00:54.376Z,10.30
2019-01-04T08:03:25.800Z,9.53
2019-01-04T08:05:58.180Z,8.53
2019-01-04T08:08:27.839Z,9.20
2019-01-04T08:10:57.532Z,9.13
2019-01-04T08:13:27.267Z,9.37
2019-01-04T08:15:56.932Z,7.57
2019-01-04T08:18:26.595Z,8.20
2019-01-04T08:20:56.512Z,11.27
2019-01-04T08:23:26.439Z,10.07
2019-01-04T08:25:56.109Z,6.85
2019-01-04T08:28:30.978Z,8.13
2019-01-04T08:31:01.377Z,8.60
2019-01-04T08:33:31.048Z,7.10
2019-01-04T08:36:00.712Z,6.10
2019-01-04T08:38:30.392Z,7.80
2019-01-04T08:41:00.056Z,8.37
2019-01-04T08:43:29.738Z,9.87
2019-01-04T08:45:59.473Z,8.40
2019-01-04T08:48:29.232Z,7.63
2019-01-04T08:50:58.911Z,7.70
2019-01-04T08:53:54.780Z,10.17
2019-01-04T08:56:25.108Z,6.33
2019-01-04T08:58:54.785Z,9.00
2019-01-04T09:01:24.451Z,7.77
2019-01-04T09:03:54.119Z,8.03
2019-01-04T09:06:23.843Z,9.10
2019-01-04T09:08:53.509Z,7.17
2019-01-04T09:11:23.247Z,7.50
2019-01-04T09:13:54.112Z,5.87
2019-01-04T09:16:23.772Z,8.07
2019-01-04T09:18:53.523Z,10.27
2019-01-04T09:21:23.198Z,9.63
2019-01-04T09:23:53.115Z,6.77
2019-01-04T09:26:22.787Z,8.13
2019-01-04T09:28:52.528Z,9.13
2019-01-04T09:31:22.198Z,8.90
2019-01-04T09:33:51.874Z,12.30
2019-01-04T09:36:21.540Z,7.28
2019-01-04T09:38:52.651Z,9.87
2019-01-04T09:41:30.805Z,12.90
2019-01-04T09:44:00.570Z,11.90
2019-01-04T09:46:31.173Z,11.73
2019-01-04T09:49:00.913Z,11.97
2019-01-04T09:51:30.671Z,12.53
2019-01-04T09:54:00.338Z,11.43
2019-01-04T09:56:30.021Z,11.87
2019-01-04T09:58:59.948Z,9.37
2019-01-04T10:01:29.630Z,12.20
2019-01-04T10:03:59.319Z,11.90
2019-01-04T10:06:28.990Z,14.37
2019-01-04T10:08:58.659Z,13.40
2019-01-04T10:11:28.341Z,10.37
2019-01-04T10:13:58.009Z,12.63
2019-01-04T10:16:27.680Z,9.67
2019-01-04T10:18:57.347Z,15.00
2019-01-04T10:21:27.104Z,16.07
2019-01-04T10:23:56.768Z,15.47
2019-01-04T10:26:26.438Z,11.20
2019-01-04T10:28:56.118Z,9.20
2019-01-04T10:31:25.786Z,13.53
2019-01-04T10:33:55.465Z,12.30
2019-01-04T10:36:25.129Z,10.33
2019-01-04T10:38:55.066Z,12.40
2019-01-04T10:41:24.736Z,13.37
2019-01-04T10:43:54.683Z,19.33
2019-01-04T10:46:24.347Z,13.07
2019-01-04T10:48:54.216Z,11.33
2019-01-04T10:51:23.897Z,11.53
2019-01-04T10:53:53.576Z,14.60
2019-01-04T10:56:23.277Z,10.47
2019-01-04T10:58:52.941Z,15.13
2019-01-04T11:01:22.616Z,13.38
2019-01-04T11:03:52.290Z,14.37
2019-01-04T11:06:22.031Z,14.07
2019-01-04T11:08:51.707Z,10.80
2019-01-04T11:11:21.404Z,15.47
2019-01-04T11:13:51.110Z,13.53
2019-01-04T11:16:20.758Z,14.93
2019-01-04T11:18:50.430Z,17.23
2019-01-04T11:21:20.346Z,14.93
2019-01-04T11:24:35.043Z,13.98
2019-01-04T11:27:23.555Z,15.28
2019-01-04T11:30:27.497Z,12.30
2019-01-04T11:33:43.095Z,12.07
2019-01-04T11:36:40.995Z,15.98
2019-01-04T11:39:23.768Z,13.90
2019-01-04T11:42:05.824Z,12.07
2019-01-04T11:45:11.675Z,14.07
2019-01-04T11:48:12.422Z,11.15
2019-01-04T11:51:12.273Z,13.83
2019-01-04T11:53:42.481Z,13.23
2019-01-04T11:56:12.205Z,14.07
2019-01-04T11:58:42.280Z,13.53
2019-01-04T12:01:12.099Z,15.27
2019-01-04T12:03:43.513Z,12.57
2019-01-04T12:06:13.250Z,12.80
2019-01-04T12:08:42.924Z,12.40
2019-01-04T12:11:12.597Z,13.73
2019-01-04T12:13:42.325Z,14.03
2019-01-04T12:16:12.088Z,13.40
2019-01-04T12:18:41.820Z,10.77
2019-01-04T12:21:11.538Z,11.90
2019-01-04T12:23:41.236Z,15.95
2019-01-04T12:26:10.928Z,10.30
2019-01-04T12:28:40.818Z,18.87
2019-01-04T12:31:10.598Z,11.90
2019-01-04T12:33:40.294Z,16.90
2019-01-04T12:36:10.127Z,15.90
2019-01-04T12:38:39.825Z,13.80
2019-01-04T12:41:09.641Z,11.20
2019-01-04T12:43:39.455Z,13.63
2019-01-04T12:46:09.204Z,12.30
2019-01-04T12:48:39.002Z,11.70
2019-01-04T12:51:08.766Z,13.97
2019-01-04T12:53:38.436Z,16.47
2019-01-04T12:56:09.097Z,11.90
2019-01-04T12:58:39.025Z,16.50
2019-01-04T13:01:08.793Z,14.40
2019-01-04T13:03:38.491Z,15.10
2019-01-04T13:06:08.176Z,12.47
2019-01-04T13:08:38.099Z,14.03
2019-01-04T13:11:08.089Z,13.13
2019-01-04T13:13:38.006Z,12.40
2019-01-04T13:16:07.679Z,18.53
2019-01-04T13:18:37.332Z,14.53
2019-01-04T13:21:07.006Z,13.20
2019-01-04T13:23:36.673Z,16.17
2019-01-04T13:26:06.348Z,15.47
2019-01-04T13:28:36.029Z,17.27
2019-01-04T13:31:05.722Z,14.73
2019-01-04T13:33:35.389Z,12.47
2019-01-04T13:36:06.034Z,15.93
2019-01-04T13:38:35.714Z,13.53
2019-01-04T13:41:05.832Z,13.57
2019-01-04T13:43:35.513Z,21.50
2019-01-04T13:46:05.313Z,20.63
2019-01-04T13:48:34.992Z,17.93
2019-01-04T13:51:05.508Z,17.53
2019-01-04T13:53:35.193Z,15.33
2019-01-04T13:56:05.670Z,19.40
2019-01-04T13:58:35.435Z,17.50
2019-01-04T14:01:05.676Z,18.30
2019-01-04T14:03:35.367Z,18.13
2019-01-04T14:06:05.127Z,14.23
2019-01-04T14:08:34.810Z,21.83
2019-01-04T14:11:04.601Z,19.70
2019-01-04T14:13:34.290Z,18.27
2019-01-04T14:18:57.702Z,19.00
2019-01-04T14:21:27.382Z,16.03
2019-01-04T14:23:57.323Z,17.20
2019-01-04T14:26:27.244Z,16.07
2019-01-04T14:28:56.945Z,13.20
2019-01-04T14:31:26.625Z,14.60
2019-01-04T14:33:56.315Z,15.50
2019-01-04T14:36:25.985Z,20.27
2019-01-04T14:38:55.668Z,16.73
2019-01-04T14:41:25.353Z,20.07
2019-01-04T14:43:55.127Z,17.80
2019-01-04T14:46:25.086Z,17.33
2019-01-04T14:48:54.771Z,20.33
2019-01-04T14:51:24.525Z,15.77
2019-01-04T14:53:54.193Z,13.60
2019-01-04T14:56:23.900Z,19.90
2019-01-04T14:58:53.637Z,16.67
2019-01-04T15:01:23.330Z,20.50
2019-01-04T15:03:54.183Z,17.83
2019-01-04T15:06:24.183Z,19.50
2019-01-04T15:08:53.887Z,18.87
2019-01-04T15:11:23.562Z,19.07
2019-01-04T15:13:53.233Z,19.90
2019-01-04T15:16:22.994Z,18.13
2019-01-04T15:18:53.225Z,19.63
2019-01-04T15:21:23.159Z,20.90
2019-01-04T15:23:52.830Z,20.67
2019-01-04T15:26:22.500Z,20.90
2019-01-04T15:28:52.185Z,17.10
2019-01-04T15:31:22.104Z,19.40
2019-01-04T15:33:51.776Z,9.25
2019-01-04T15:36:21.458Z,20.23
2019-01-04T15:38:51.384Z,18.10
2019-01-04T15:41:21.074Z,12.53
2019-01-04T15:43:50.764Z,25.33
2019-01-04T15:46:20.455Z,16.85
2019-01-04T15:48:50.133Z,27.70
2019-01-04T15:51:19.875Z,20.30
2019-01-04T15:53:49.560Z,16.13
2019-01-04T15:56:19.248Z,22.13
2019-01-04T15:58:48.937Z,22.97
2019-01-04T16:01:18.608Z,23.70
2019-01-04T16:03:48.320Z,22.37
2019-01-04T16:06:18.005Z,24.18
2019-01-04T16:08:47.950Z,21.43
2019-01-04T16:11:17.629Z,18.97
2019-01-04T16:13:47.306Z,22.10
2019-01-04T16:16:16.975Z,23.77
2019-01-04T16:18:46.653Z,21.47
2019-01-04T16:21:16.341Z,20.17
2019-01-04T16:23:46.035Z,25.47
2019-01-04T16:26:15.708Z,27.50
2019-01-04T16:28:45.411Z,21.20
2019-01-04T16:31:15.106Z,34.73
2019-01-04T16:33:44.772Z,25.57
2019-01-04T16:36:14.892Z,25.47
2019-01-04T16:38:45.533Z,21.43
2019-01-04T16:41:15.226Z,24.40
2019-01-04T16:43:44.892Z,30.30
2019-01-04T16:46:14.566Z,21.87
2019-01-04T16:48:44.269Z,25.60
2019-01-04T16:51:13.941Z,19.33
2019-01-04T16:53:43.871Z,21.00
2019-01-04T16:56:13.541Z,27.42
2019-01-04T16:58:43.224Z,24.57
2019-01-04T17:01:13.191Z,20.63
2019-01-04T17:03:42.942Z,21.73
2019-01-04T17:06:12.881Z,20.90
2019-01-04T17:08:42.841Z,28.67
2019-01-04T17:11:12.534Z,22.17
2019-01-04T17:13:42.218Z,24.43
2019-01-04T17:16:11.895Z,22.13
2019-01-04T17:18:41.589Z,24.37
2019-01-04T17:21:11.241Z,23.92
2019-01-04T17:23:41.261Z,23.30
2019-01-04T17:26:11.006Z,22.82
2019-01-04T17:28:40.766Z,22.47
2019-01-04T17:31:10.440Z,23.93
2019-01-04T17:33:40.118Z,26.07
2019-01-04T17:36:09.791Z,30.50
2019-01-04T17:38:39.467Z,23.07
2019-01-04T17:41:09.222Z,24.90
2019-01-04T17:43:39.154Z,23.80
2019-01-04T17:46:08.843Z,22.90
2019-01-04T17:48:38.539Z,27.33
2019-01-04T17:51:08.230Z,23.53
2019-01-04T17:53:37.913Z,21.07
2019-01-04T17:56:07.594Z,25.30
2019-01-04T17:58:37.258Z,28.10
2019-01-04T18:01:07.015Z,20.40
2019-01-04T18:03:36.705Z,22.23
2019-01-04T18:06:06.538Z,22.93
2019-01-04T18:08:36.214Z,23.10
2019-01-04T18:11:05.913Z,21.20
2019-01-04T18:13:35.667Z,22.03
2019-01-04T18:16:05.864Z,23.77
2019-01-04T18:18:35.702Z,22.35
2019-01-04T18:21:05.449Z,20.47
2019-01-04T18:23:35.209Z,21.53
2019-01-04T18:26:05.989Z,24.23
2019-01-04T18:28:35.689Z,23.13
2019-01-04T18:31:06.735Z,21.33
2019-01-04T18:33:36.752Z,25.60
2019-01-04T18:36:06.435Z,18.70
2019-01-04T18:38:36.122Z,24.23
2019-01-04T18:41:05.885Z,22.63
2019-01-04T18:43:35.585Z,19.73
2019-01-04T18:46:05.501Z,23.43
2019-01-04T18:48:35.186Z,24.67
2019-01-04T18:51:05.382Z,23.27
2019-01-04T18:53:35.061Z,19.77
2019-01-04T18:56:05.296Z,27.63
2019-01-04T18:58:34.983Z,22.27
2019-01-04T19:01:05.613Z,17.87
2019-01-04T19:03:35.284Z,19.03
2019-01-04T19:06:05.146Z,18.37
2019-01-04T19:08:34.821Z,22.43
2019-01-04T19:11:05.418Z,23.25
2019-01-04T19:13:36.160Z,27.80
2019-01-04T19:16:05.842Z,20.40
2019-01-04T19:18:35.511Z,20.73
2019-01-04T19:21:06.156Z,24.23
2019-01-04T19:23:39.557Z,22.57
2019-01-04T19:26:07.224Z,18.43
2019-01-04T19:28:36.922Z,21.97
2019-01-04T19:31:24.374Z,25.17
2019-01-04T19:33:54.053Z,24.20
2019-01-04T19:36:24.400Z,21.03
2019-01-04T19:38:54.099Z,16.93
2019-01-04T19:41:23.881Z,22.73
2019-01-04T19:43:53.588Z,21.30
2019-01-04T19:46:23.260Z,20.32
2019-01-04T19:48:53.399Z,22.03
2019-01-04T19:51:23.161Z,21.23
2019-01-04T19:53:52.841Z,27.40
2019-01-04T19:56:22.765Z,21.03
2019-01-04T19:58:52.450Z,18.37
2019-01-04T20:01:22.389Z,22.20
2019-01-04T20:03:52.057Z,28.05
2019-01-04T20:07:25.855Z,22.07
2019-01-04T20:10:49.215Z,22.73
2019-01-04T20:14:21.164Z,22.32
2019-01-04T20:17:15.204Z,19.97
2019-01-04T20:20:06.673Z,22.77
2019-01-04T20:22:55.829Z,23.87
2019-01-04T20:25:59.097Z,15.17
2019-01-04T20:28:46.265Z,17.03
2019-01-04T20:31:40.641Z,18.90
2019-01-04T20:34:29.343Z,18.00
2019-01-04T20:37:21.203Z,20.10
2019-01-04T20:40:12.806Z,16.80
2019-01-04T20:42:59.354Z,15.53
2019-01-04T20:45:49.242Z,17.13
2019-01-04T20:48:40.717Z,16.12
2019-01-04T20:51:38.192Z,19.30
2019-01-04T20:54:25.545Z,20.80
2019-01-04T20:57:14.714Z,16.07
2019-01-04T21:00:02.121Z,13.93
2019-01-04T21:02:50.982Z,17.03
2019-01-04T21:05:38.368Z,15.33
2019-01-04T21:08:27.079Z,19.00
2019-01-04T21:11:21.605Z,17.07
2019-01-04T21:14:11.237Z,16.05
2019-01-04T21:17:14.732Z,13.70
2019-01-04T21:19:59.383Z,13.97
2019-01-04T21:22:46.840Z,13.70
2019-01-04T21:25:29.711Z,13.07
2019-01-04T21:28:13.897Z,13.97
2019-01-04T21:31:01.341Z,19.03
2019-01-04T21:33:55.920Z,13.33
2019-01-04T21:36:53.525Z,12.87
2019-01-04T21:39:36.638Z,18.47
2019-01-04T21:42:37.526Z,14.47
2019-01-04T21:45:22.329Z,11.33
2019-01-04T21:48:11.747Z,11.87
2019-01-04T21:50:59.999Z,9.97
2019-01-04T21:53:47.097Z,11.40
2019-01-04T21:56:35.817Z,13.00
2019-01-04T21:59:30.332Z,13.20
2019-01-04T22:02:32.606Z,19.27
2019-01-04T22:05:31.719Z,12.50
2019-01-04T22:08:19.049Z,11.67
2019-01-04T22:11:06.796Z,11.33
2019-01-04T22:14:08.216Z,14.13
2019-01-04T22:17:11.851Z,11.40
2019-01-04T22:20:09.937Z,12.17
2019-01-04T22:23:00.410Z,14.80
2019-01-04T22:26:05.078Z,10.50
2019-01-04T22:28:52.240Z,10.13
2019-01-04T22:31:39.678Z,13.55
2019-01-04T22:34:37.658Z,10.47
2019-01-04T22:37:30.656Z,11.27
2019-01-04T22:40:22.364Z,15.43
2019-01-04T22:43:09.761Z,10.57
2019-01-04T22:46:06.938Z,11.13
2019-01-04T22:48:54.126Z,13.93
2019-01-04T22:51:42.816Z,12.23
2019-01-04T22:54:31.521Z,11.70
2019-01-04T22:57:35.119Z,13.10
2019-01-04T23:00:32.505Z,11.70
2019-01-04T23:03:19.981Z,11.30
2019-01-04T23:06:07.372Z,12.93
2019-01-04T23:08:59.321Z,10.73
2019-01-04T23:11:42.064Z,13.00
2019-01-04T23:14:29.221Z,9.80
2019-01-04T23:17:27.893Z,14.17
2019-01-04T23:20:24.688Z,10.10
2019-01-04T23:23:18.462Z,11.90
2019-01-04T23:26:05.885Z,12.30
2019-01-04T23:28:53.368Z,13.60
2019-01-04T23:31:40.479Z,11.23
2019-01-04T23:34:32.200Z,15.53
2019-01-04T23:37:19.630Z,12.50
2019-01-04T23:40:15.264Z,15.50
2019-01-04T23:43:03.232Z,16.67
2019-01-04T23:45:54.517Z,16.07
2019-01-04T23:48:37.407Z,15.23
2019-01-04T23:51:24.315Z,15.67
2019-01-04T23:54:02.608Z,16.90
2019-01-04T23:56:54.328Z,15.87
2019-01-04T23:59:38.391Z,12.58
